Time;durP1;ratioP1;P1;durP2;ratioP2;P2;SDS_P1;SDS_P2;PMS_P1;PMS_P2;Temp;Humidity;BMP_temperature;BMP_pressure;BME280_temperature;BME280_humidity;BME280_pressure;Samples;Min_cycle;Max_cycle;Signal;HPM_P1;HPM_P2
2021/10/16 00:01:11;;;;;;;5.87;3.80;;;;;;;;;;5028322;28;20174;-63
2021/10/16 00:03:37;;;;;;;5.60;3.63;;;;;;;;;;5028532;28;20192;-65
2021/10/16 00:06:05;;;;;;;3.93;3.13;;;;;;;;;;5011661;28;20247;-63
2021/10/16 00:08:32;;;;;;;4.00;3.60;;;;;;;;;;5010395;28;20246;-64
2021/10/16 00:10:58;;;;;;;6.67;3.90;;;;;;;;;;5009715;28;20184;-64
2021/10/16 00:13:28;;;;;;;5.93;3.17;;;;;;;;;;5028202;28;20201;-63
2021/10/16 00:15:54;;;;;;;4.97;3.37;;;;;;;;;;5028740;28;20181;-64
2021/10/16 00:18:32;;;;;;;11.07;3.47;;;;;;;;;;5028556;28;20196;-67
2021/10/16 00:21:02;;;;;;;6.87;3.50;;;;;;;;;;5010905;28;20173;-64
2021/10/16 00:23:29;;;;;;;7.20;3.63;;;;;;;;;;5010506;28;20708;-64
2021/10/16 00:25:55;;;;;;;4.60;3.83;;;;;;;;;;5009262;28;20185;-64
2021/10/16 00:28:25;;;;;;;5.87;3.67;;;;;;;;;;5010642;28;20557;-65
2021/10/16 00:31:07;;;;;;;5.67;3.40;;;;;;;;;;5028729;28;20170;-63
2021/10/16 00:33:35;;;;;;;3.87;3.40;;;;;;;;;;5010067;28;20181;-64
2021/10/16 00:36:07;;;;;;;7.20;2.73;;;;;;;;;;5007208;28;20186;-63
2021/10/16 00:38:36;;;;;;;5.07;4.10;;;;;;;;;;5020459;28;20177;-64
2021/10/16 00:41:02;;;;;;;7.33;3.93;;;;;;;;;;5009491;28;20616;-63
2021/10/16 00:43:39;;;;;;;4.77;2.77;;;;;;;;;;5010209;28;20192;-64
2021/10/16 00:46:05;;;;;;;4.57;3.53;;;;;;;;;;5010116;28;20315;-63
2021/10/16 00:48:35;;;;;;;4.00;3.43;;;;;;;;;;5009825;28;20189;-64
2021/10/16 00:51:02;;;;;;;5.70;3.83;;;;;;;;;;5009858;28;20612;-65
2021/10/16 00:53:28;;;;;;;3.80;3.20;;;;;;;;;;5009806;28;20212;-63
2021/10/16 00:55:54;;;;;;;4.50;3.80;;;;;;;;;;5008634;28;20221;-64
2021/10/16 00:58:24;;;;;;;6.33;4.33;;;;;;;;;;5009755;28;20713;-64
2021/10/16 01:00:51;;;;;;;6.73;4.10;;;;;;;;;;5009841;28;20209;-63
2021/10/16 01:03:20;;;;;;;6.03;4.37;;;;;;;;;;5011483;28;20261;-64
2021/10/16 01:05:47;;;;;;;6.37;4.07;;;;;;;;;;5013844;28;20574;-63
2021/10/16 01:08:15;;;;;;;5.63;3.83;;;;;;;;;;5021691;28;20185;-63
2021/10/16 01:10:44;;;;;;;6.33;3.57;;;;;;;;;;5013808;28;20221;-63
2021/10/16 01:13:11;;;;;;;6.77;4.47;;;;;;;;;;5013215;28;20190;-63
2021/10/16 01:15:37;;;;;;;6.83;3.83;;;;;;;;;;5013528;28;20189;-63
2021/10/16 01:18:04;;;;;;;4.43;3.57;;;;;;;;;;5013323;28;20244;-64
2021/10/16 01:20:31;;;;;;;6.03;4.10;;;;;;;;;;5031448;28;20169;-64
2021/10/16 01:22:58;;;;;;;6.43;4.30;;;;;;;;;;5013524;28;20202;-63
2021/10/16 01:25:25;;;;;;;5.20;3.77;;;;;;;;;;5031697;28;20595;-64
2021/10/16 01:27:51;;;;;;;4.90;3.57;;;;;;;;;;5012801;28;20194;-63
2021/10/16 01:30:19;;;;;;;6.80;6.07;;;;;;;;;;5013597;28;20206;-65
2021/10/16 01:32:45;;;;;;;8.53;3.57;;;;;;;;;;5030890;28;20182;-63
2021/10/16 01:35:12;;;;;;;5.93;3.40;;;;;;;;;;5013376;28;20550;-64
2021/10/16 01:37:42;;;;;;;6.13;3.37;;;;;;;;;;5013358;28;20285;-63
2021/10/16 01:40:10;;;;;;;5.33;3.40;;;;;;;;;;5014019;28;20205;-65
2021/10/16 01:42:42;;;;;;;5.43;3.80;;;;;;;;;;5030120;28;20204;-63
2021/10/16 01:45:09;;;;;;;9.10;3.77;;;;;;;;;;5013651;28;20256;-63
2021/10/16 01:47:56;;;;;;;5.23;3.50;;;;;;;;;;5022482;28;20193;-63
2021/10/16 01:50:23;;;;;;;4.37;3.43;;;;;;;;;;5012909;28;20255;-66
2021/10/16 01:52:50;;;;;;;5.30;3.10;;;;;;;;;;5012223;28;20308;-65
2021/10/16 01:55:16;;;;;;;5.13;3.43;;;;;;;;;;5024441;28;20184;-64
2021/10/16 01:57:44;;;;;;;3.87;2.93;;;;;;;;;;5026829;28;20342;-65
2021/10/16 02:00:11;;;;;;;4.83;3.03;;;;;;;;;;5012804;28;20189;-64
2021/10/16 02:02:38;;;;;;;4.20;3.37;;;;;;;;;;5012445;28;20189;-64
2021/10/16 02:05:07;;;;;;;3.70;3.00;;;;;;;;;;5012695;28;20256;-63
2021/10/16 02:07:33;;;;;;;5.20;2.73;;;;;;;;;;5012419;28;20204;-63
2021/10/16 02:10:00;;;;;;;5.10;3.00;;;;;;;;;;5012651;28;20355;-65
2021/10/16 02:12:26;;;;;;;5.60;2.90;;;;;;;;;;5011278;28;20181;-65
2021/10/16 02:14:53;;;;;;;4.37;2.90;;;;;;;;;;5011551;28;20182;-63
2021/10/16 02:17:19;;;;;;;5.33;3.13;;;;;;;;;;5012796;28;20189;-63
2021/10/16 02:19:45;;;;;;;3.67;2.83;;;;;;;;;;5012380;28;20166;-63
2021/10/16 02:22:11;;;;;;;5.67;2.87;;;;;;;;;;5012424;28;20223;-63
2021/10/16 02:24:38;;;;;;;5.47;3.20;;;;;;;;;;5030022;28;20174;-64
2021/10/16 02:27:04;;;;;;;3.67;2.90;;;;;;;;;;5011430;28;20666;-65
2021/10/16 02:29:31;;;;;;;3.20;2.50;;;;;;;;;;5029784;28;20214;-63
2021/10/16 02:31:57;;;;;;;9.53;3.73;;;;;;;;;;5030227;28;20177;-65
2021/10/16 02:34:23;;;;;;;4.73;3.33;;;;;;;;;;5012160;28;20186;-63
2021/10/16 02:36:50;;;;;;;3.40;3.10;;;;;;;;;;5011631;28;20660;-64
2021/10/16 02:39:16;;;;;;;3.53;2.63;;;;;;;;;;5011886;28;20189;-63
2021/10/16 02:41:45;;;;;;;3.80;2.77;;;;;;;;;;5010899;28;20178;-63
2021/10/16 02:44:11;;;;;;;5.47;2.93;;;;;;;;;;5012084;28;20624;-63
2021/10/16 02:46:40;;;;;;;4.33;2.70;;;;;;;;;;5011938;28;20182;-63
2021/10/16 02:49:06;;;;;;;4.47;2.87;;;;;;;;;;5029682;28;20214;-63
2021/10/16 02:51:32;;;;;;;4.10;2.83;;;;;;;;;;5029440;28;20282;-63
2021/10/16 02:53:59;;;;;;;6.77;2.70;;;;;;;;;;5011797;28;20181;-63
2021/10/16 02:56:25;;;;;;;3.83;3.07;;;;;;;;;;5010103;28;20220;-64
2021/10/16 02:58:51;;;;;;;3.93;3.13;;;;;;;;;;5011739;28;20190;-65
2021/10/16 03:01:18;;;;;;;5.57;5.07;;;;;;;;;;5011357;28;20667;-64
2021/10/16 03:03:49;;;;;;;4.40;2.80;;;;;;;;;;5012051;28;20556;-64
2021/10/16 03:06:19;;;;;;;4.17;2.70;;;;;;;;;;5009900;28;20646;-63
2021/10/16 03:08:45;;;;;;;4.07;2.90;;;;;;;;;;5005087;28;20210;-64
2021/10/16 03:11:12;;;;;;;3.93;2.53;;;;;;;;;;5011502;28;20311;-63
2021/10/16 03:13:38;;;;;;;4.10;2.87;;;;;;;;;;5012243;28;20190;-63
2021/10/16 03:16:05;;;;;;;3.30;2.77;;;;;;;;;;5029895;28;20182;-64
2021/10/16 03:18:31;;;;;;;4.27;2.83;;;;;;;;;;5011522;28;20201;-63
2021/10/16 03:20:58;;;;;;;5.03;3.13;;;;;;;;;;5011971;28;20252;-63
2021/10/16 03:23:24;;;;;;;3.27;2.37;;;;;;;;;;5011122;28;20221;-64
2021/10/16 03:25:50;;;;;;;7.20;2.90;;;;;;;;;;5028596;28;20560;-64
2021/10/16 03:28:17;;;;;;;2.80;2.37;;;;;;;;;;5010683;28;20189;-64
2021/10/16 03:30:43;;;;;;;3.77;2.57;;;;;;;;;;5010758;28;20221;-64
2021/10/16 03:33:09;;;;;;;5.93;4.13;;;;;;;;;;5010860;28;20178;-64
2021/10/16 03:35:35;;;;;;;3.70;2.67;;;;;;;;;;5011291;28;20224;-65
2021/10/16 03:38:02;;;;;;;3.00;2.10;;;;;;;;;;5010762;28;20227;-64
2021/10/16 03:40:31;;;;;;;6.17;3.03;;;;;;;;;;5011162;28;20200;-63
2021/10/16 03:42:57;;;;;;;6.47;3.07;;;;;;;;;;5009669;28;20664;-64
2021/10/16 03:45:24;;;;;;;5.43;2.97;;;;;;;;;;5010966;28;20285;-64
2021/10/16 03:47:50;;;;;;;3.53;2.60;;;;;;;;;;5028338;28;20197;-63
2021/10/16 03:50:17;;;;;;;3.93;2.87;;;;;;;;;;5011124;28;20201;-63
2021/10/16 03:52:46;;;;;;;2.57;2.37;;;;;;;;;;5010349;28;20607;-64
2021/10/16 03:55:12;;;;;;;4.50;2.87;;;;;;;;;;5011075;28;20227;-63
2021/10/16 03:57:41;;;;;;;5.07;2.53;;;;;;;;;;5027125;28;20241;-63
2021/10/16 04:00:19;;;;;;;3.43;3.13;;;;;;;;;;5011585;28;20270;-65
2021/10/16 04:02:47;;;;;;;4.67;2.90;;;;;;;;;;5010622;28;20295;-64
2021/10/16 04:05:14;;;;;;;5.57;5.07;;;;;;;;;;5011250;28;20651;-64
2021/10/16 04:07:41;;;;;;;3.70;2.90;;;;;;;;;;5011066;28;20204;-64
2021/10/16 04:10:08;;;;;;;7.30;3.80;;;;;;;;;;5011550;28;20284;-63
2021/10/16 04:12:34;;;;;;;3.77;2.87;;;;;;;;;;5028172;28;20197;-64
2021/10/16 04:15:00;;;;;;;3.90;2.40;;;;;;;;;;5011307;28;20272;-64
2021/10/16 04:17:27;;;;;;;5.93;2.80;;;;;;;;;;5028897;28;20189;-65
2021/10/16 04:19:53;;;;;;;4.23;2.57;;;;;;;;;;5011617;28;20178;-65
2021/10/16 04:22:19;;;;;;;4.40;2.67;;;;;;;;;;5010906;28;20181;-65
2021/10/16 04:24:46;;;;;;;4.10;2.43;;;;;;;;;;5028087;28;20174;-65
2021/10/16 04:27:12;;;;;;;4.70;4.10;;;;;;;;;;5009209;28;20190;-65
2021/10/16 04:29:38;;;;;;;4.37;3.47;;;;;;;;;;5027550;28;20363;-64
2021/10/16 04:32:08;;;;;;;5.40;2.80;;;;;;;;;;5009877;28;20543;-65
2021/10/16 04:34:34;;;;;;;2.83;2.53;;;;;;;;;;5009353;28;20417;-65
2021/10/16 04:37:01;;;;;;;3.90;2.47;;;;;;;;;;5009030;28;20182;-65
2021/10/16 04:39:30;;;;;;;3.77;2.60;;;;;;;;;;5027479;28;20223;-63
2021/10/16 04:41:56;;;;;;;6.03;2.70;;;;;;;;;;5009270;28;20225;-65
2021/10/16 04:44:25;;;;;;;5.37;2.67;;;;;;;;;;5009925;28;20186;-63
2021/10/16 04:46:52;;;;;;;3.30;2.50;;;;;;;;;;5010057;28;20304;-64
2021/10/16 04:49:18;;;;;;;4.10;2.37;;;;;;;;;;5027723;28;20204;-64
2021/10/16 04:51:45;;;;;;;2.97;2.60;;;;;;;;;;5009596;28;20206;-65
2021/10/16 04:54:11;;;;;;;5.10;2.50;;;;;;;;;;5009522;28;20193;-64
2021/10/16 04:56:37;;;;;;;3.87;2.67;;;;;;;;;;5007987;28;20351;-63
2021/10/16 04:59:12;;;;;;;5.00;2.63;;;;;;;;;;5008398;28;20204;-65
2021/10/16 05:01:41;;;;;;;4.53;2.70;;;;;;;;;;5009883;28;20232;-65
2021/10/16 05:04:07;;;;;;;5.60;2.33;;;;;;;;;;5009847;28;20205;-64
2021/10/16 05:06:37;;;;;;;2.60;2.40;;;;;;;;;;5009848;28;20178;-64
2021/10/16 05:09:03;;;;;;;4.03;2.60;;;;;;;;;;5009606;28;20205;-64
2021/10/16 05:11:29;;;;;;;3.67;2.70;;;;;;;;;;5026812;28;20174;-63
2021/10/16 05:13:55;;;;;;;3.07;2.53;;;;;;;;;;5009611;28;20268;-63
2021/10/16 05:16:22;;;;;;;4.70;2.70;;;;;;;;;;5007988;28;20174;-64
2021/10/16 05:18:48;;;;;;;5.83;4.00;;;;;;;;;;5025906;28;20328;-64
2021/10/16 05:21:14;;;;;;;2.77;2.30;;;;;;;;;;5008274;28;20632;-63
2021/10/16 05:23:43;;;;;;;5.33;2.80;;;;;;;;;;5007771;28;20265;-63
2021/10/16 05:26:12;;;;;;;3.50;2.50;;;;;;;;;;5024835;28;20264;-63
2021/10/16 05:28:38;;;;;;;3.03;2.10;;;;;;;;;;5007798;28;20228;-64
2021/10/16 05:31:05;;;;;;;5.50;2.10;;;;;;;;;;5005561;28;20638;-63
2021/10/16 05:33:31;;;;;;;3.17;2.20;;;;;;;;;;5000516;28;20264;-64
2021/10/16 05:35:58;;;;;;;5.30;2.57;;;;;;;;;;5009787;28;20177;-64
2021/10/16 05:38:25;;;;;;;5.30;2.67;;;;;;;;;;5009461;28;20811;-65
2021/10/16 05:40:52;;;;;;;4.47;2.50;;;;;;;;;;5009070;28;20504;-64
2021/10/16 05:43:18;;;;;;;4.00;2.40;;;;;;;;;;5009245;28;20875;-64
2021/10/16 05:45:44;;;;;;;3.70;2.97;;;;;;;;;;5027286;28;20178;-64
2021/10/16 05:48:14;;;;;;;2.63;2.03;;;;;;;;;;5009345;28;20247;-63
2021/10/16 05:50:40;;;;;;;3.20;2.30;;;;;;;;;;5012931;28;20874;-63
2021/10/16 05:53:07;;;;;;;2.83;1.77;;;;;;;;;;5012851;28;20297;-63
2021/10/16 05:55:33;;;;;;;3.37;2.43;;;;;;;;;;5012692;28;20186;-63
2021/10/16 05:57:59;;;;;;;4.10;2.63;;;;;;;;;;5029280;28;20208;-65
2021/10/16 06:00:25;;;;;;;5.73;2.00;;;;;;;;;;5012434;28;20420;-65
2021/10/16 06:02:52;;;;;;;3.30;2.23;;;;;;;;;;5012254;28;20185;-64
2021/10/16 06:05:18;;;;;;;2.83;2.17;;;;;;;;;;5013209;28;20268;-65
2021/10/16 06:07:44;;;;;;;4.30;2.80;;;;;;;;;;5012124;28;20430;-64
2021/10/16 06:10:11;;;;;;;3.33;2.13;;;;;;;;;;5013186;28;20210;-65
2021/10/16 06:12:37;;;;;;;4.50;2.33;;;;;;;;;;5010842;28;20669;-65
2021/10/16 06:15:04;;;;;;;3.87;2.20;;;;;;;;;;5030731;28;20174;-64
2021/10/16 06:17:30;;;;;;;3.30;2.17;;;;;;;;;;5030059;28;20178;-64
2021/10/16 06:19:57;;;;;;;3.87;2.27;;;;;;;;;;5030500;28;20185;-64
2021/10/16 06:22:23;;;;;;;3.93;2.30;;;;;;;;;;5012068;28;20357;-64
2021/10/16 06:24:51;;;;;;;3.63;2.63;;;;;;;;;;5012727;28;20703;-65
2021/10/16 06:27:17;;;;;;;2.93;2.20;;;;;;;;;;5029053;28;20177;-65
2021/10/16 06:29:46;;;;;;;2.43;1.87;;;;;;;;;;5011808;28;20212;-64
2021/10/16 06:32:12;;;;;;;4.40;2.50;;;;;;;;;;5012387;28;20201;-65
2021/10/16 06:34:38;;;;;;;8.80;2.67;;;;;;;;;;5030226;28;20561;-65
2021/10/16 06:37:08;;;;;;;4.20;2.30;;;;;;;;;;5012089;28;20594;-63
2021/10/16 06:39:34;;;;;;;4.73;2.30;;;;;;;;;;5011781;28;20216;-64
2021/10/16 06:42:01;;;;;;;7.57;2.37;;;;;;;;;;5011530;28;20188;-64
2021/10/16 06:44:27;;;;;;;2.80;2.33;;;;;;;;;;5029395;28;20544;-64
2021/10/16 06:46:53;;;;;;;4.47;2.43;;;;;;;;;;5011590;28;20565;-64
2021/10/16 06:49:19;;;;;;;3.27;2.50;;;;;;;;;;5012061;28;20667;-63
2021/10/16 06:51:48;;;;;;;2.63;2.20;;;;;;;;;;5011953;28;20229;-64
2021/10/16 06:54:14;;;;;;;3.53;2.37;;;;;;;;;;5011109;28;20205;-65
2021/10/16 06:56:40;;;;;;;6.47;2.13;;;;;;;;;;5010276;28;20229;-63
2021/10/16 06:59:09;;;;;;;5.00;2.33;;;;;;;;;;5010782;28;20185;-63
2021/10/16 07:01:36;;;;;;;3.60;2.30;;;;;;;;;;5009730;28;20297;-64
2021/10/16 07:04:02;;;;;;;3.40;2.50;;;;;;;;;;5010449;28;20213;-63
2021/10/16 07:06:29;;;;;;;4.17;2.20;;;;;;;;;;5011548;28;20289;-64
2021/10/16 07:08:57;;;;;;;4.90;3.53;;;;;;;;;;5011394;28;20208;-64
2021/10/16 07:11:27;;;;;;;5.60;2.20;;;;;;;;;;5010650;28;20243;-63
2021/10/16 07:13:54;;;;;;;4.90;2.40;;;;;;;;;;5011135;28;20190;-63
2021/10/16 07:16:20;;;;;;;3.27;2.30;;;;;;;;;;5011543;28;20184;-64
2021/10/16 07:18:47;;;;;;;5.67;2.80;;;;;;;;;;5029355;28;20633;-63
2021/10/16 07:21:13;;;;;;;4.23;2.80;;;;;;;;;;5011601;28;20174;-62
2021/10/16 07:23:40;;;;;;;3.50;2.13;;;;;;;;;;5011312;28;20209;-63
2021/10/16 07:26:06;;;;;;;4.57;2.57;;;;;;;;;;5010565;28;20243;-63
2021/10/16 07:28:32;;;;;;;3.47;2.07;;;;;;;;;;5011159;28;20595;-63
2021/10/16 07:30:58;;;;;;;3.87;2.80;;;;;;;;;;5029564;28;20192;-65
2021/10/16 07:33:25;;;;;;;6.90;2.37;;;;;;;;;;5011253;28;20292;-63
2021/10/16 07:35:51;;;;;;;7.17;2.83;;;;;;;;;;5029433;28;20252;-63
2021/10/16 07:38:20;;;;;;;7.03;2.30;;;;;;;;;;5010660;28;20212;-63
2021/10/16 07:40:47;;;;;;;3.53;2.40;;;;;;;;;;5010521;28;20178;-65
2021/10/16 07:43:16;;;;;;;5.57;3.40;;;;;;;;;;5010703;28;20197;-63
2021/10/16 07:45:43;;;;;;;5.97;3.70;;;;;;;;;;5010591;28;20235;-65
2021/10/16 07:48:09;;;;;;;6.70;2.90;;;;;;;;;;5019586;28;20182;-63
2021/10/16 07:50:38;;;;;;;8.53;3.03;;;;;;;;;;5011123;28;20197;-63
2021/10/16 07:53:05;;;;;;;6.83;2.90;;;;;;;;;;5010403;28;20198;-64
2021/10/16 07:55:34;;;;;;;5.43;2.53;;;;;;;;;;5010561;28;20268;-64
2021/10/16 07:58:01;;;;;;;10.37;3.10;;;;;;;;;;5025032;28;20250;-63
2021/10/16 08:00:27;;;;;;;6.07;2.87;;;;;;;;;;5009384;28;20239;-63
2021/10/16 08:02:56;;;;;;;5.70;2.87;;;;;;;;;;5003484;28;20228;-64
2021/10/16 08:05:22;;;;;;;6.20;2.83;;;;;;;;;;4989432;28;20262;-63
2021/10/16 08:07:51;;;;;;;6.10;2.77;;;;;;;;;;4988851;28;20625;-63
2021/10/16 08:10:17;;;;;;;4.87;2.57;;;;;;;;;;4989607;28;20288;-63
2021/10/16 08:12:43;;;;;;;6.13;3.03;;;;;;;;;;4989009;28;20283;-62
2021/10/16 08:15:14;;;;;;;5.30;3.13;;;;;;;;;;4990710;28;20177;-62
2021/10/16 08:17:40;;;;;;;6.87;3.13;;;;;;;;;;4990686;28;20595;-63
2021/10/16 08:20:07;;;;;;;6.97;3.30;;;;;;;;;;4990788;28;20214;-63
2021/10/16 08:22:34;;;;;;;4.50;2.67;;;;;;;;;;4990272;28;20584;-62
2021/10/16 08:25:00;;;;;;;4.33;2.67;;;;;;;;;;4990787;28;20274;-62
2021/10/16 08:27:27;;;;;;;5.67;2.90;;;;;;;;;;4989273;28;20202;-63
2021/10/16 08:29:56;;;;;;;4.70;3.07;;;;;;;;;;5008628;28;20213;-65
2021/10/16 08:32:26;;;;;;;6.50;3.30;;;;;;;;;;5008291;28;20589;-64
2021/10/16 08:34:52;;;;;;;5.13;3.80;;;;;;;;;;5008814;28;20170;-64
2021/10/16 08:37:18;;;;;;;5.17;3.10;;;;;;;;;;4992526;28;20620;-64
2021/10/16 08:39:47;;;;;;;5.03;3.20;;;;;;;;;;4990484;28;20183;-64
2021/10/16 08:42:14;;;;;;;8.37;3.50;;;;;;;;;;4989078;28;20193;-63
2021/10/16 08:44:40;;;;;;;5.80;3.33;;;;;;;;;;4990809;28;20273;-63
2021/10/16 08:47:06;;;;;;;8.33;3.70;;;;;;;;;;4990533;28;20186;-63
2021/10/16 08:49:33;;;;;;;7.70;3.57;;;;;;;;;;4989934;28;20288;-64
2021/10/16 08:51:59;;;;;;;4.10;3.30;;;;;;;;;;4990342;28;20194;-65
2021/10/16 08:54:29;;;;;;;5.33;3.03;;;;;;;;;;5007978;28;20178;-63
2021/10/16 08:56:55;;;;;;;4.50;3.17;;;;;;;;;;5017791;28;20700;-63
2021/10/16 08:59:21;;;;;;;8.70;4.13;;;;;;;;;;5009634;28;20197;-63
2021/10/16 09:02:01;;;;;;;6.73;3.20;;;;;;;;;;5009897;28;20178;-63
2021/10/16 09:04:29;;;;;;;4.53;3.23;;;;;;;;;;5010302;28;20328;-64
2021/10/16 09:06:55;;;;;;;5.33;3.50;;;;;;;;;;5009871;28;20181;-63
2021/10/16 09:09:39;;;;;;;4.70;3.63;;;;;;;;;;5010177;28;20374;-63
2021/10/16 09:12:11;;;;;;;5.00;3.63;;;;;;;;;;5009336;28;20488;-64
2021/10/16 09:14:47;;;;;;;5.90;3.60;;;;;;;;;;5010239;28;20186;-63
2021/10/16 09:17:14;;;;;;;5.77;3.97;;;;;;;;;;5029561;28;20574;-63
2021/10/16 09:19:41;;;;;;;4.77;3.20;;;;;;;;;;5009812;28;20207;-64
2021/10/16 09:22:09;;;;;;;6.50;3.80;;;;;;;;;;5027997;28;20710;-63
2021/10/16 09:24:35;;;;;;;4.70;3.57;;;;;;;;;;5030770;28;20216;-63
2021/10/16 09:27:02;;;;;;;5.53;3.80;;;;;;;;;;5050458;28;20187;-63
2021/10/16 09:29:33;;;;;;;8.33;3.90;;;;;;;;;;5012634;28;20668;-64
2021/10/16 09:32:01;;;;;;;6.20;3.97;;;;;;;;;;5013738;28;20254;-64
2021/10/16 09:34:31;;;;;;;6.67;4.10;;;;;;;;;;5013370;28;20181;-65
2021/10/16 09:37:02;;;;;;;8.27;4.53;;;;;;;;;;5031790;28;20568;-63
2021/10/16 09:39:28;;;;;;;7.47;5.30;;;;;;;;;;5013426;28;20186;-64
2021/10/16 09:41:55;;;;;;;6.80;4.67;;;;;;;;;;5030344;28;20277;-63
2021/10/16 09:44:23;;;;;;;9.10;4.90;;;;;;;;;;5013502;28;20265;-63
2021/10/16 09:47:19;;;;;;;7.83;4.83;;;;;;;;;;5009892;28;20198;-63
2021/10/16 09:49:46;;;;;;;6.30;4.50;;;;;;;;;;4981538;28;20642;-64
2021/10/16 09:52:14;;;;;;;9.93;4.87;;;;;;;;;;4993709;28;20281;-64
2021/10/16 09:54:44;;;;;;;6.40;4.97;;;;;;;;;;4993655;28;20229;-63
2021/10/16 09:57:15;;;;;;;9.03;4.63;;;;;;;;;;4992391;28;20226;-65
2021/10/16 09:59:43;;;;;;;7.63;4.63;;;;;;;;;;4993867;28;20195;-64
2021/10/16 10:02:10;;;;;;;10.87;4.83;;;;;;;;;;4993600;28;20330;-64
2021/10/16 10:04:51;;;;;;;8.03;4.90;;;;;;;;;;5012855;28;20212;-64
2021/10/16 10:07:20;;;;;;;6.87;4.90;;;;;;;;;;5012758;28;20180;-63
2021/10/16 10:09:47;;;;;;;7.40;5.17;;;;;;;;;;5030976;28;20202;-64
2021/10/16 10:12:14;;;;;;;11.10;5.57;;;;;;;;;;5009890;28;20185;-63
2021/10/16 10:14:41;;;;;;;5.93;4.73;;;;;;;;;;4993421;28;20272;-64
2021/10/16 10:17:11;;;;;;;10.83;4.73;;;;;;;;;;4993050;28;20182;-63
2021/10/16 10:19:39;;;;;;;11.30;5.10;;;;;;;;;;5012818;28;20637;-63
2021/10/16 10:22:15;;;;;;;5.53;4.33;;;;;;;;;;5030757;28;20178;-66
2021/10/16 10:24:49;;;;;;;9.00;4.47;;;;;;;;;;4993278;28;20189;-63
2021/10/16 10:27:17;;;;;;;8.70;4.80;;;;;;;;;;4991896;28;20270;-63
2021/10/16 10:29:47;;;;;;;9.67;5.33;;;;;;;;;;5030515;28;20224;-65
2021/10/16 10:32:20;;;;;;;7.60;4.53;;;;;;;;;;5012567;28;20174;-64
2021/10/16 10:34:55;;;;;;;6.10;4.43;;;;;;;;;;5012744;28;20663;-65
2021/10/16 10:37:28;;;;;;;7.43;5.00;;;;;;;;;;5011125;28;20182;-64
2021/10/16 10:40:16;;;;;;;8.90;5.27;;;;;;;;;;5012111;28;20180;-64
2021/10/16 10:42:44;;;;;;;6.70;4.77;;;;;;;;;;5027596;28;20256;-64
2021/10/16 10:45:40;;;;;;;9.53;5.43;;;;;;;;;;5011092;28;20182;-64
2021/10/16 10:48:09;;;;;;;13.27;4.67;;;;;;;;;;4991947;28;20220;-65
2021/10/16 10:50:40;;;;;;;7.47;5.10;;;;;;;;;;5030939;28;20204;-64
2021/10/16 10:53:08;;;;;;;10.43;5.47;;;;;;;;;;5029334;28;20216;-64
2021/10/16 10:55:55;;;;;;;8.77;5.53;;;;;;;;;;5012071;28;20228;-63
2021/10/16 10:58:22;;;;;;;9.77;7.73;;;;;;;;;;5019493;28;20194;-63
2021/10/16 11:00:49;;;;;;;10.87;6.93;;;;;;;;;;4992213;28;20214;-62
2021/10/16 11:03:30;;;;;;;9.97;7.60;;;;;;;;;;5010099;28;20206;-63
2021/10/16 11:06:17;;;;;;;14.37;8.57;;;;;;;;;;4991884;28;20183;-63
2021/10/16 11:08:45;;;;;;;12.63;8.90;;;;;;;;;;5000378;28;20225;-63
2021/10/16 11:11:11;;;;;;;14.80;9.18;;;;;;;;;;4989204;28;20411;-63
2021/10/16 11:13:40;;;;;;;17.57;9.07;;;;;;;;;;4991379;28;20186;-66
2021/10/16 11:16:07;;;;;;;11.10;8.07;;;;;;;;;;5008577;28;20171;-66
2021/10/16 11:18:37;;;;;;;17.70;8.10;;;;;;;;;;5008699;28;20754;-66
2021/10/16 11:21:18;;;;;;;12.23;8.03;;;;;;;;;;4990886;28;20174;-66
2021/10/16 11:23:48;;;;;;;12.83;8.17;;;;;;;;;;4992099;28;20797;-67
2021/10/16 11:26:15;;;;;;;10.57;7.00;;;;;;;;;;4990399;28;20246;-66
2021/10/16 11:28:48;;;;;;;10.83;6.80;;;;;;;;;;5009045;28;20182;-66
2021/10/16 11:31:14;;;;;;;7.60;6.10;;;;;;;;;;4988362;28;20471;-66
2021/10/16 11:33:40;;;;;;;13.80;7.10;;;;;;;;;;5000193;28;20648;-66
2021/10/16 11:36:08;;;;;;;11.60;6.20;;;;;;;;;;5009449;28;20569;-66
2021/10/16 11:38:39;;;;;;;11.47;6.90;;;;;;;;;;4991554;28;20370;-66
2021/10/16 11:41:09;;;;;;;11.73;7.30;;;;;;;;;;4990657;28;20296;-65
2021/10/16 11:44:00;;;;;;;10.90;6.23;;;;;;;;;;4991474;28;20187;-66
2021/10/16 11:46:26;;;;;;;17.87;6.53;;;;;;;;;;5008153;28;20546;-63
2021/10/16 11:48:55;;;;;;;10.30;6.10;;;;;;;;;;5008931;28;20187;-65
2021/10/16 11:51:28;;;;;;;12.47;6.10;;;;;;;;;;5009274;28;20361;-65
2021/10/16 11:53:54;;;;;;;9.30;5.73;;;;;;;;;;4991246;28;20704;-64
2021/10/16 11:56:28;;;;;;;9.60;6.10;;;;;;;;;;5013744;28;20240;-64
2021/10/16 11:58:58;;;;;;;7.67;5.37;;;;;;;;;;5010601;28;20279;-65
2021/10/16 12:01:26;;;;;;;9.67;6.93;;;;;;;;;;5010820;28;20181;-64
2021/10/16 12:03:55;;;;;;;9.80;6.17;;;;;;;;;;5010872;28;20186;-64
2021/10/16 12:06:24;;;;;;;10.97;6.17;;;;;;;;;;5010181;28;20281;-64
2021/10/16 12:09:04;;;;;;;10.80;5.87;;;;;;;;;;5009904;28;20246;-63
2021/10/16 12:11:34;;;;;;;8.97;5.90;;;;;;;;;;5009980;28;20162;-65
2021/10/16 12:14:17;;;;;;;11.10;6.60;;;;;;;;;;5010888;28;20523;-64
2021/10/16 12:16:46;;;;;;;11.90;5.37;;;;;;;;;;5010455;28;20261;-65
2021/10/16 12:19:16;;;;;;;10.13;5.37;;;;;;;;;;5009760;28;20204;-63
2021/10/16 12:21:44;;;;;;;10.63;5.10;;;;;;;;;;5010846;28;20177;-63
2021/10/16 12:24:16;;;;;;;11.57;4.97;;;;;;;;;;5010218;28;20231;-65
2021/10/16 12:26:50;;;;;;;11.40;5.50;;;;;;;;;;5008922;28;20192;-66
2021/10/16 12:29:44;;;;;;;13.13;4.83;;;;;;;;;;5010106;28;20339;-63
2021/10/16 12:32:11;;;;;;;10.17;5.27;;;;;;;;;;5004167;28;20205;-63
2021/10/16 12:34:49;;;;;;;7.23;4.13;;;;;;;;;;5006363;28;20187;-63
2021/10/16 12:37:15;;;;;;;8.33;3.53;;;;;;;;;;5019006;28;20190;-63
2021/10/16 12:39:46;;;;;;;7.20;2.50;;;;;;;;;;5008617;28;20553;-64
2021/10/16 12:42:14;;;;;;;5.17;2.67;;;;;;;;;;5018483;28;20652;-64
2021/10/16 12:44:47;;;;;;;9.17;3.63;;;;;;;;;;5010228;28;20188;-71
2021/10/16 12:47:17;;;;;;;11.57;4.17;;;;;;;;;;5008077;28;20186;-70
2021/10/16 12:49:48;;;;;;;8.57;3.17;;;;;;;;;;5011023;28;20213;-71
2021/10/16 12:52:25;;;;;;;9.47;3.20;;;;;;;;;;5007122;28;20201;-70
2021/10/16 12:54:52;;;;;;;8.20;3.70;;;;;;;;;;5011729;28;20235;-71
2021/10/16 12:57:21;;;;;;;8.87;3.10;;;;;;;;;;5016967;28;20677;-66
2021/10/16 12:59:48;;;;;;;8.53;3.37;;;;;;;;;;5015073;28;20185;-66
2021/10/16 13:02:14;;;;;;;11.53;2.90;;;;;;;;;;5035580;28;20243;-64
2021/10/16 13:04:41;;;;;;;9.40;3.60;;;;;;;;;;5008543;28;20188;-63
2021/10/16 13:07:08;;;;;;;4.57;2.30;;;;;;;;;;5016630;28;20182;-62
2021/10/16 13:09:34;;;;;;;8.07;3.47;;;;;;;;;;5027615;28;20198;-64
2021/10/16 13:12:00;;;;;;;6.07;2.33;;;;;;;;;;5022371;28;20181;-63
2021/10/16 13:14:26;;;;;;;6.23;2.80;;;;;;;;;;5013686;28;20548;-59
2021/10/16 13:16:53;;;;;;;7.70;3.07;;;;;;;;;;5012969;28;20192;-63
2021/10/16 13:19:28;;;;;;;6.97;3.13;;;;;;;;;;5030517;28;20174;-64
2021/10/16 13:21:54;;;;;;;4.67;2.50;;;;;;;;;;5028437;28;20560;-63
2021/10/16 13:24:29;;;;;;;10.27;3.60;;;;;;;;;;5012743;28;20548;-64
2021/10/16 13:26:59;;;;;;;5.20;2.90;;;;;;;;;;5009450;28;20601;-64
2021/10/16 13:29:25;;;;;;;4.53;2.97;;;;;;;;;;5011876;28;20255;-63
2021/10/16 13:31:55;;;;;;;8.27;3.30;;;;;;;;;;5012837;28;20598;-62
2021/10/16 13:34:34;;;;;;;;;;;;;;;;;;;;;
2021/10/16 13:37:22;;;;;;;8.60;3.87;;;;;;;;;;5029433;28;20224;-69
2021/10/16 13:39:51;;;;;;;46.53;9.30;;;;;;;;;;5012924;28;20181;-67
2021/10/16 13:42:21;;;;;;;13.90;3.67;;;;;;;;;;5011022;28;20265;-60
2021/10/16 13:44:53;;;;;;;6.63;2.80;;;;;;;;;;5013866;28;20198;-61
2021/10/16 13:47:23;;;;;;;8.03;2.93;;;;;;;;;;5009167;28;20512;-61
2021/10/16 13:49:55;;;;;;;14.07;3.67;;;;;;;;;;5014085;28;20198;-60
2021/10/16 13:52:30;;;;;;;11.87;4.43;;;;;;;;;;5017987;28;20206;-60
2021/10/16 13:55:07;;;;;;;8.63;3.20;;;;;;;;;;5029435;28;20192;-61
2021/10/16 13:57:35;;;;;;;8.80;3.33;;;;;;;;;;5010762;28;20225;-61
2021/10/16 14:00:01;;;;;;;9.20;3.60;;;;;;;;;;5013810;28;20186;-61
2021/10/16 14:02:51;;;;;;;6.90;2.57;;;;;;;;;;5009543;28;20206;-60
2021/10/16 14:05:28;;;;;;;7.63;2.90;;;;;;;;;;5003861;28;20185;-61
2021/10/16 14:07:55;;;;;;;17.00;3.03;;;;;;;;;;5012371;28;20272;-61
2021/10/16 14:10:21;;;;;;;4.53;2.50;;;;;;;;;;5008481;28;20591;-60
2021/10/16 14:12:55;;;;;;;6.90;2.97;;;;;;;;;;5009359;28;20263;-60
2021/10/16 14:15:28;;;;;;;4.20;2.70;;;;;;;;;;5016117;28;20197;-63
2021/10/16 14:17:54;;;;;;;5.97;2.80;;;;;;;;;;5009729;28;20178;-60
2021/10/16 14:20:23;;;;;;;6.33;3.57;;;;;;;;;;5012310;28;20273;-60
2021/10/16 14:22:52;;;;;;;8.47;3.30;;;;;;;;;;5008647;28;20257;-60
2021/10/16 14:25:18;;;;;;;7.90;3.57;;;;;;;;;;5015198;28;20182;-60
2021/10/16 14:27:45;;;;;;;4.57;2.67;;;;;;;;;;5010359;28;20277;-60
2021/10/16 14:30:23;;;;;;;8.63;3.40;;;;;;;;;;5011978;28;20672;-60
2021/10/16 14:32:51;;;;;;;8.03;2.97;;;;;;;;;;5010809;28;20237;-60
2021/10/16 14:35:18;;;;;;;4.27;2.50;;;;;;;;;;5029244;28;20205;-64
2021/10/16 14:37:48;;;;;;;7.90;2.83;;;;;;;;;;5008906;28;20177;-60
2021/10/16 14:40:14;;;;;;;7.97;3.13;;;;;;;;;;5012794;28;20549;-61
2021/10/16 14:42:44;;;;;;;6.87;2.47;;;;;;;;;;5009990;28;20174;-60
2021/10/16 14:45:31;;;;;;;14.80;4.80;;;;;;;;;;5031381;28;20174;-64
2021/10/16 14:47:57;;;;;;;8.77;3.67;;;;;;;;;;5010903;28;20182;-66
2021/10/16 14:50:26;;;;;;;7.40;2.70;;;;;;;;;;5029928;28;20198;-64
2021/10/16 14:52:55;;;;;;;5.90;2.80;;;;;;;;;;5015547;28;20255;-66